Time;durP1;ratioP1;P1;durP2;ratioP2;P2;SDS_P1;SDS_P2;PMS_P1;PMS_P2;Temp;Humidity;BMP_temperature;BMP_pressure;BME280_temperature;BME280_humidity;BME280_pressure;Samples;Min_cycle;Max_cycle;Signal;HPM_P1;HPM_P2
2022/07/28 00:00:40;;;;;;;47.58;4.72;;;;;;;;;;5072689;28;20115;-66
2022/07/28 00:03:07;;;;;;;28.63;3.72;;;;;;;;;;5067907;28;20122;-66
2022/07/28 00:05:33;;;;;;;29.35;3.55;;;;;;;;;;5067806;28;20043;-66
2022/07/28 00:08:00;;;;;;;46.92;4.85;;;;;;;;;;5065838;28;20446;-66
2022/07/28 00:10:26;;;;;;;75.82;6.53;;;;;;;;;;5068075;28;20047;-67
2022/07/28 00:12:53;;;;;;;36.78;4.60;;;;;;;;;;5070724;28;20456;-65
2022/07/28 00:15:19;;;;;;;67.82;6.10;;;;;;;;;;5070360;28;20076;-65
2022/07/28 00:17:46;;;;;;;20.60;3.65;;;;;;;;;;5067820;28;20073;-67
2022/07/28 00:20:13;;;;;;;47.88;4.63;;;;;;;;;;5068249;28;20040;-67
2022/07/28 00:22:40;;;;;;;27.83;3.63;;;;;;;;;;5067105;28;20102;-67
2022/07/28 00:25:06;;;;;;;30.10;3.25;;;;;;;;;;5069867;28;20033;-67
2022/07/28 00:27:33;;;;;;;25.13;3.95;;;;;;;;;;5071868;28;20040;-66
2022/07/28 00:29:59;;;;;;;25.02;3.25;;;;;;;;;;5067585;28;20546;-66
2022/07/28 00:32:26;;;;;;;40.25;4.32;;;;;;;;;;5067224;28;20048;-66
2022/07/28 00:34:52;;;;;;;13.95;2.50;;;;;;;;;;5066994;28;20685;-66
2022/07/28 00:37:19;;;;;;;62.78;5.43;;;;;;;;;;5066801;28;20064;-66
2022/07/28 00:39:46;;;;;;;44.78;5.10;;;;;;;;;;5071406;28;20051;-66
2022/07/28 00:42:15;;;;;;;50.60;4.95;;;;;;;;;;5068504;28;20087;-65
2022/07/28 00:44:42;;;;;;;12.70;3.15;;;;;;;;;;5067782;28;20119;-64
2022/07/28 00:47:10;;;;;;;46.10;4.85;;;;;;;;;;5067484;28;20567;-65
2022/07/28 00:49:37;;;;;;;14.13;3.13;;;;;;;;;;5067877;28;20040;-64
2022/07/28 00:52:04;;;;;;;35.25;4.55;;;;;;;;;;5068558;28;20095;-64
2022/07/28 00:54:31;;;;;;;97.15;7.72;;;;;;;;;;5070843;28;20039;-64
2022/07/28 00:56:58;;;;;;;42.92;4.97;;;;;;;;;;5066449;28;20032;-64
2022/07/28 00:59:24;;;;;;;33.78;4.93;;;;;;;;;;5067347;28;20111;-65
2022/07/28 01:01:52;;;;;;;54.55;5.78;;;;;;;;;;5066640;28;20048;-65
2022/07/28 01:04:20;;;;;;;30.40;4.93;;;;;;;;;;5066746;28;20047;-65
2022/07/28 01:07:05;;;;;;;53.40;6.18;;;;;;;;;;5070734;28;20123;-66
2022/07/28 01:09:34;;;;;;;34.85;5.22;;;;;;;;;;5070388;28;20120;-66
2022/07/28 01:12:09;;;;;;;33.28;4.93;;;;;;;;;;5066997;28;20040;-67
2022/07/28 01:14:43;;;;;;;76.00;7.75;;;;;;;;;;5067069;28;20036;-67
2022/07/28 01:17:17;;;;;;;16.77;4.30;;;;;;;;;;5067546;28;20479;-66
2022/07/28 01:19:52;;;;;;;42.78;5.70;;;;;;;;;;5066851;28;20119;-66
2022/07/28 01:22:21;;;;;;;65.10;6.93;;;;;;;;;;5066678;28;20384;-67
2022/07/28 01:24:51;;;;;;;39.78;5.32;;;;;;;;;;5070113;28;20051;-67
2022/07/28 01:27:38;;;;;;;37.58;5.45;;;;;;;;;;5070919;28;20487;-68
2022/07/28 01:30:06;;;;;;;54.85;5.72;;;;;;;;;;5065163;28;20038;-67
2022/07/28 01:32:43;;;;;;;24.95;4.82;;;;;;;;;;5065814;28;20140;-65
2022/07/28 01:35:14;;;;;;;40.25;4.68;;;;;;;;;;5065936;28;20047;-64
2022/07/28 01:37:43;;;;;;;32.85;5.15;;;;;;;;;;5065857;28;20040;-66
2022/07/28 01:40:10;;;;;;;16.70;3.88;;;;;;;;;;5067406;28;20491;-67
2022/07/28 01:42:48;;;;;;;32.28;4.95;;;;;;;;;;5070882;28;20040;-69
2022/07/28 01:45:14;;;;;;;56.72;6.57;;;;;;;;;;5067909;28;20540;-67
2022/07/28 01:47:45;;;;;;;13.95;4.60;;;;;;;;;;5066727;28;20147;-63
2022/07/28 01:50:13;;;;;;;54.63;7.03;;;;;;;;;;5066554;28;20049;-64
2022/07/28 01:52:40;;;;;;;23.63;5.03;;;;;;;;;;5066813;28;20042;-66
2022/07/28 01:55:08;;;;;;;30.95;5.72;;;;;;;;;;5067476;28;20127;-66
2022/07/28 01:57:35;;;;;;;40.25;7.18;;;;;;;;;;5070807;28;20039;-66
2022/07/28 02:00:03;;;;;;;39.88;7.15;;;;;;;;;;5065768;28;20070;-66
2022/07/28 02:02:38;;;;;;;29.00;6.40;;;;;;;;;;5065656;28;20099;-65
2022/07/28 02:05:06;;;;;;;42.17;7.72;;;;;;;;;;5065652;28;20052;-65
2022/07/28 02:07:33;;;;;;;30.10;6.88;;;;;;;;;;5066058;28;20041;-65
2022/07/28 02:10:01;;;;;;;86.90;9.50;;;;;;;;;;5067613;28;20470;-65
2022/07/28 02:12:28;;;;;;;27.85;6.53;;;;;;;;;;5065297;28;20120;-65
2022/07/28 02:14:55;;;;;;;63.70;8.80;;;;;;;;;;5066291;28;20128;-64
2022/07/28 02:17:25;;;;;;;48.38;7.72;;;;;;;;;;5065599;28;20056;-69
2022/07/28 02:19:52;;;;;;;33.55;8.02;;;;;;;;;;5065522;28;20098;-69
2022/07/28 02:22:19;;;;;;;67.50;9.70;;;;;;;;;;5065315;28;20049;-70
2022/07/28 02:24:47;;;;;;;79.75;11.90;;;;;;;;;;5069802;28;20550;-70
2022/07/28 02:27:25;;;;;;;64.22;10.05;;;;;;;;;;5070214;28;20055;-70
2022/07/28 02:30:01;;;;;;;39.78;9.07;;;;;;;;;;5066596;28;20476;-70
2022/07/28 02:32:37;;;;;;;33.88;7.57;;;;;;;;;;5065578;28;20156;-63
2022/07/28 02:35:24;;;;;;;46.03;8.95;;;;;;;;;;5066221;28;20123;-66
2022/07/28 02:38:04;;;;;;;48.20;9.05;;;;;;;;;;5065377;28;20147;-65
2022/07/28 02:40:35;;;;;;;52.25;10.25;;;;;;;;;;5066120;28;20037;-66
2022/07/28 02:43:02;;;;;;;78.45;10.85;;;;;;;;;;5067856;28;20044;-67
2022/07/28 02:45:30;;;;;;;36.00;9.25;;;;;;;;;;5070329;28;20036;-68
2022/07/28 02:48:00;;;;;;;75.57;11.63;;;;;;;;;;5069020;28;20143;-67
2022/07/28 02:50:28;;;;;;;45.67;10.38;;;;;;;;;;5068720;28;20047;-64
2022/07/28 02:52:56;;;;;;;44.45;11.48;;;;;;;;;;5072718;28;20036;-65
2022/07/28 02:55:24;;;;;;;84.82;13.13;;;;;;;;;;5069727;28;20037;-64
2022/07/28 02:57:51;;;;;;;63.80;10.93;;;;;;;;;;5073248;28;20051;-65
2022/07/28 03:00:22;;;;;;;40.75;10.27;;;;;;;;;;5071159;28;20131;-65
2022/07/28 03:02:49;;;;;;;48.20;10.73;;;;;;;;;;5069213;28;20115;-66
2022/07/28 03:05:16;;;;;;;56.58;10.85;;;;;;;;;;5068925;28;20542;-68
2022/07/28 03:07:43;;;;;;;28.00;9.68;;;;;;;;;;5071113;28;20494;-70
2022/07/28 03:10:16;;;;;;;;;;;;;;;;;;5070275;28;20064;-68
2022/07/28 03:12:43;;;;;;;41.33;8.85;;;;;;;;;;5074063;28;19924;-68
2022/07/28 03:15:09;;;;;;;52.53;10.90;;;;;;;;;;5068576;28;20145;-66
2022/07/28 03:17:36;;;;;;;59.08;11.00;;;;;;;;;;5068385;28;20072;-66
2022/07/28 03:20:03;;;;;;;64.93;12.10;;;;;;;;;;5069076;28;20463;-66
2022/07/28 03:22:29;;;;;;;67.13;11.80;;;;;;;;;;5068559;28;20771;-66
2022/07/28 03:24:57;;;;;;;75.30;12.98;;;;;;;;;;5072021;28;20490;-66
2022/07/28 03:27:23;;;;;;;41.35;10.25;;;;;;;;;;5071647;28;20041;-67
2022/07/28 03:29:54;;;;;;;70.32;12.40;;;;;;;;;;5068216;28;20568;-67
2022/07/28 03:32:27;;;;;;;96.97;13.00;;;;;;;;;;5068118;28;20136;-66
2022/07/28 03:34:54;;;;;;;72.22;10.90;;;;;;;;;;5067936;28;20107;-66
2022/07/28 03:37:24;;;;;;;126.03;13.85;;;;;;;;;;5067935;28;20107;-66
2022/07/28 03:39:52;;;;;;;84.93;10.95;;;;;;;;;;5072219;28;20572;-66
2022/07/28 03:42:19;;;;;;;45.75;9.25;;;;;;;;;;5070421;28;20124;-66
2022/07/28 03:44:46;;;;;;;50.35;8.50;;;;;;;;;;5068397;28;20040;-66
2022/07/28 03:47:13;;;;;;;43.63;8.25;;;;;;;;;;5067983;28;20111;-65
2022/07/28 03:49:44;;;;;;;44.78;9.10;;;;;;;;;;5067797;28;20535;-68
2022/07/28 03:52:10;;;;;;;79.93;10.77;;;;;;;;;;5068739;28;20040;-68
2022/07/28 03:54:37;;;;;;;42.80;9.05;;;;;;;;;;5073056;28;20044;-68
2022/07/28 03:57:03;;;;;;;48.90;10.77;;;;;;;;;;5067079;28;20036;-67
2022/07/28 03:59:30;;;;;;;64.60;11.63;;;;;;;;;;5067763;28;20111;-66
2022/07/28 04:01:56;;;;;;;42.28;10.05;;;;;;;;;;5067915;28;20056;-65
2022/07/28 04:04:23;;;;;;;46.78;10.18;;;;;;;;;;5067756;28;20102;-65
2022/07/28 04:06:50;;;;;;;83.95;12.38;;;;;;;;;;5071752;28;20120;-66
2022/07/28 04:09:16;;;;;;;44.45;10.65;;;;;;;;;;5069005;28;20048;-65
2022/07/28 04:11:43;;;;;;;41.17;10.32;;;;;;;;;;5070719;28;20046;-65
2022/07/28 04:14:09;;;;;;;60.08;11.52;;;;;;;;;;5067452;28;20044;-64
2022/07/28 04:16:42;;;;;;;66.97;11.82;;;;;;;;;;5067391;28;20037;-68
2022/07/28 04:19:09;;;;;;;39.95;8.23;;;;;;;;;;5068757;28;20045;-67
2022/07/28 04:21:35;;;;;;;59.80;8.25;;;;;;;;;;5071142;28;20044;-67
2022/07/28 04:24:02;;;;;;;38.30;5.90;;;;;;;;;;5067907;28;20037;-66
2022/07/28 04:26:28;;;;;;;44.90;5.95;;;;;;;;;;5067783;28;20064;-68
2022/07/28 04:28:55;;;;;;;79.20;8.13;;;;;;;;;;5067305;28;20040;-68
2022/07/28 04:31:21;;;;;;;37.15;5.45;;;;;;;;;;5067314;28;20053;-72
2022/07/28 04:33:49;;;;;;;54.72;5.38;;;;;;;;;;5071111;28;20075;-72
2022/07/28 04:36:16;;;;;;;53.95;5.18;;;;;;;;;;5067811;28;20541;-72
2022/07/28 04:38:42;;;;;;;27.38;3.88;;;;;;;;;;5070850;28;20079;-73
2022/07/28 04:41:09;;;;;;;28.30;4.20;;;;;;;;;;5067766;28;20067;-71
2022/07/28 04:43:37;;;;;;;62.35;6.22;;;;;;;;;;5067672;28;20087;-66
2022/07/28 04:46:04;;;;;;;62.15;6.15;;;;;;;;;;5069152;28;20048;-73
2022/07/28 04:48:30;;;;;;;31.73;4.40;;;;;;;;;;5069789;28;20495;-68
2022/07/28 04:50:57;;;;;;;49.92;5.68;;;;;;;;;;5067636;28;20040;-66
2022/07/28 04:53:23;;;;;;;30.80;4.20;;;;;;;;;;5067285;28;20044;-66
2022/07/28 04:55:51;;;;;;;34.55;4.53;;;;;;;;;;5067533;28;20054;-68
2022/07/28 04:58:20;;;;;;;57.15;5.15;;;;;;;;;;5067973;28;20036;-69
2022/07/28 05:00:48;;;;;;;35.08;4.35;;;;;;;;;;5070885;28;20044;-69
2022/07/28 05:03:16;;;;;;;60.97;4.78;;;;;;;;;;5067265;28;20055;-69
2022/07/28 05:05:42;;;;;;;48.65;5.03;;;;;;;;;;5066495;28;20090;-70
2022/07/28 05:08:14;;;;;;;18.98;3.05;;;;;;;;;;5065882;28;20036;-70
2022/07/28 05:10:41;;;;;;;72.20;6.63;;;;;;;;;;5069055;28;20127;-70
2022/07/28 05:13:08;;;;;;;77.25;6.75;;;;;;;;;;5068343;28;20037;-70
2022/07/28 05:15:34;;;;;;;38.88;4.28;;;;;;;;;;5070603;28;20044;-68
2022/07/28 05:18:01;;;;;;;33.03;3.92;;;;;;;;;;5067715;28;20091;-69
2022/07/28 05:20:27;;;;;;;69.03;6.13;;;;;;;;;;5067716;28;20037;-68
2022/07/28 05:22:56;;;;;;;39.30;4.50;;;;;;;;;;5067696;28;20040;-67
2022/07/28 05:25:24;;;;;;;35.55;4.30;;;;;;;;;;5066765;28;20036;-66
2022/07/28 05:27:51;;;;;;;69.45;6.20;;;;;;;;;;5071185;28;20044;-66
2022/07/28 05:30:18;;;;;;;50.55;4.82;;;;;;;;;;5067647;28;20064;-67
2022/07/28 05:32:44;;;;;;;24.20;3.28;;;;;;;;;;5066649;28;20139;-67
2022/07/28 05:35:11;;;;;;;44.35;4.38;;;;;;;;;;5066692;28;20579;-67
2022/07/28 05:37:37;;;;;;;42.60;5.15;;;;;;;;;;5065861;28;20108;-68
2022/07/28 05:40:09;;;;;;;61.38;5.95;;;;;;;;;;5068121;28;20137;-67
2022/07/28 05:42:35;;;;;;;45.38;4.15;;;;;;;;;;5068976;28;20388;-67
2022/07/28 05:45:07;;;;;;;44.13;4.78;;;;;;;;;;5065725;28;20131;-67
2022/07/28 05:47:46;;;;;;;76.82;7.45;;;;;;;;;;5064701;28;20044;-67
2022/07/28 05:50:13;;;;;;;49.65;4.53;;;;;;;;;;5064797;28;20055;-67
2022/07/28 05:52:40;;;;;;;69.03;5.65;;;;;;;;;;5065479;28;20055;-67
2022/07/28 05:55:07;;;;;;;122.22;9.13;;;;;;;;;;5067164;28;20159;-67
2022/07/28 05:57:34;;;;;;;30.58;3.85;;;;;;;;;;5068599;28;20059;-67
2022/07/28 06:00:01;;;;;;;40.45;3.75;;;;;;;;;;5065063;28;20045;-67
2022/07/28 06:02:37;;;;;;;54.33;4.90;;;;;;;;;;5065744;28;20048;-67
2022/07/28 06:05:07;;;;;;;23.88;3.35;;;;;;;;;;5068029;28;20456;-67
2022/07/28 06:07:33;;;;;;;26.50;3.33;;;;;;;;;;5066721;28;20446;-67
2022/07/28 06:10:13;;;;;;;13.32;2.25;;;;;;;;;;5068274;28;20045;-67
2022/07/28 06:12:44;;;;;;;22.55;3.35;;;;;;;;;;5070392;28;20098;-67
2022/07/28 06:15:11;;;;;;;59.83;5.78;;;;;;;;;;5066293;28;20120;-67
2022/07/28 06:17:38;;;;;;;21.67;3.92;;;;;;;;;;5064931;28;20045;-67
2022/07/28 06:20:05;;;;;;;31.38;3.67;;;;;;;;;;5066577;28;20119;-67
2022/07/28 06:22:41;;;;;;;183.30;12.68;;;;;;;;;;5069525;28;20123;-67
2022/07/28 06:25:12;;;;;;;56.60;5.63;;;;;;;;;;5071576;28;20070;-67
2022/07/28 06:27:39;;;;;;;33.35;3.65;;;;;;;;;;5072743;28;20494;-67
2022/07/28 06:30:06;;;;;;;15.95;2.70;;;;;;;;;;5069837;28;20116;-68
2022/07/28 06:32:32;;;;;;;55.70;5.90;;;;;;;;;;5066522;28;20053;-65
2022/07/28 06:34:59;;;;;;;60.95;5.55;;;;;;;;;;5070104;28;20070;-69
2022/07/28 06:37:25;;;;;;;52.33;4.97;;;;;;;;;;5069391;28;20041;-68
2022/07/28 06:39:52;;;;;;;22.83;3.60;;;;;;;;;;5074078;28;20037;-67
2022/07/28 06:42:19;;;;;;;34.65;3.97;;;;;;;;;;5070893;28;20039;-67
2022/07/28 06:44:45;;;;;;;29.90;4.28;;;;;;;;;;5069144;28;20060;-66
2022/07/28 06:47:24;;;;;;;26.27;4.25;;;;;;;;;;5070366;28;20032;-67
2022/07/28 06:49:51;;;;;;;76.63;7.07;;;;;;;;;;5069602;28;20045;-66
2022/07/28 06:52:19;;;;;;;45.75;4.80;;;;;;;;;;5070313;28;20131;-71
2022/07/28 06:54:47;;;;;;;37.10;4.22;;;;;;;;;;5074022;28;20143;-69
2022/07/28 06:57:14;;;;;;;34.42;4.45;;;;;;;;;;5070141;28;20040;-68
2022/07/28 06:59:42;;;;;;;35.78;4.40;;;;;;;;;;5071721;28;20040;-68
2022/07/28 07:02:08;;;;;;;18.40;2.78;;;;;;;;;;5068950;28;20037;-67
2022/07/28 07:04:35;;;;;;;47.58;4.65;;;;;;;;;;5069954;28;20065;-69
2022/07/28 07:07:02;;;;;;;49.83;4.75;;;;;;;;;;5072495;28;20045;-68
2022/07/28 07:09:40;;;;;;;32.65;3.97;;;;;;;;;;5073187;28;20171;-66
2022/07/28 07:12:06;;;;;;;28.00;3.38;;;;;;;;;;5069232;28;20045;-68
2022/07/28 07:14:33;;;;;;;43.83;4.60;;;;;;;;;;5068511;28;20064;-68
2022/07/28 07:16:59;;;;;;;33.67;3.70;;;;;;;;;;5069521;28;20044;-68
2022/07/28 07:19:26;;;;;;;47.58;4.53;;;;;;;;;;5069144;28;20141;-67
2022/07/28 07:21:52;;;;;;;22.27;3.15;;;;;;;;;;5073906;28;20037;-68
2022/07/28 07:24:19;;;;;;;50.10;5.07;;;;;;;;;;5068792;28;20091;-68
2022/07/28 07:26:47;;;;;;;48.60;5.32;;;;;;;;;;5067634;28;20125;-68
2022/07/28 07:29:14;;;;;;;39.58;4.03;;;;;;;;;;5069850;28;20072;-68
2022/07/28 07:31:40;;;;;;;37.92;3.88;;;;;;;;;;5068371;28;20048;-67
2022/07/28 07:34:07;;;;;;;81.82;6.60;;;;;;;;;;5070942;28;20127;-68
2022/07/28 07:36:34;;;;;;;40.92;4.18;;;;;;;;;;5070413;28;20052;-68
2022/07/28 07:39:00;;;;;;;29.30;3.30;;;;;;;;;;5066849;28;20143;-68
2022/07/28 07:41:27;;;;;;;58.70;4.88;;;;;;;;;;5069917;28;20039;-69
2022/07/28 07:43:56;;;;;;;10.77;2.47;;;;;;;;;;5069103;28;20076;-68
2022/07/28 07:46:22;;;;;;;27.80;3.00;;;;;;;;;;5069101;28;20029;-68
2022/07/28 07:48:49;;;;;;;29.30;3.35;;;;;;;;;;5073586;28;20044;-66
2022/07/28 07:51:16;;;;;;;48.80;4.82;;;;;;;;;;5067812;28;20127;-66
2022/07/28 07:53:43;;;;;;;44.03;4.10;;;;;;;;;;5071458;28;20043;-67
2022/07/28 07:56:09;;;;;;;84.22;6.70;;;;;;;;;;5064650;28;20123;-72
2022/07/28 07:58:36;;;;;;;59.78;5.18;;;;;;;;;;5064404;28;20402;-70
2022/07/28 08:01:03;;;;;;;85.03;6.80;;;;;;;;;;5066701;28;20119;-66
2022/07/28 08:03:29;;;;;;;70.80;6.05;;;;;;;;;;5067431;28;20060;-63
2022/07/28 08:05:58;;;;;;;87.57;6.93;;;;;;;;;;5063910;28;20049;-66
2022/07/28 08:08:25;;;;;;;90.60;7.05;;;;;;;;;;5062842;28;20079;-66
2022/07/28 08:10:53;;;;;;;92.65;6.82;;;;;;;;;;5062552;28;20116;-67
2022/07/28 08:13:19;;;;;;;73.43;6.20;;;;;;;;;;5064643;28;20538;-75
2022/07/28 08:15:46;;;;;;;44.88;4.25;;;;;;;;;;5065283;28;20127;-67
2022/07/28 08:18:13;;;;;;;100.90;7.82;;;;;;;;;;5063764;28;20044;-72
2022/07/28 08:20:40;;;;;;;22.50;3.30;;;;;;;;;;5068052;28;20086;-67
2022/07/28 08:23:07;;;;;;;33.17;3.63;;;;;;;;;;5068711;28;20039;-70
2022/07/28 08:25:34;;;;;;;47.78;4.75;;;;;;;;;;5067488;28;20462;-69
2022/07/28 08:28:00;;;;;;;57.75;5.30;;;;;;;;;;5071464;28;20052;-74
2022/07/28 08:30:27;;;;;;;35.75;3.95;;;;;;;;;;5069775;28;20032;-69
2022/07/28 08:32:58;;;;;;;55.88;5.25;;;;;;;;;;5067528;28;20040;-73
2022/07/28 08:35:25;;;;;;;37.60;4.18;;;;;;;;;;5067626;28;20032;-73
2022/07/28 08:38:04;;;;;;;25.95;2.97;;;;;;;;;;5067392;28;20040;-73
2022/07/28 08:40:33;;;;;;;68.78;5.90;;;;;;;;;;5067329;28;20560;-73
2022/07/28 08:43:12;;;;;;;60.15;5.38;;;;;;;;;;5085773;28;20044;-72
2022/07/28 08:45:40;;;;;;;83.78;6.45;;;;;;;;;;5071133;28;20044;-72
2022/07/28 08:48:09;;;;;;;17.80;2.78;;;;;;;;;;5067791;28;20146;-74
2022/07/28 08:50:37;;;;;;;22.33;3.35;;;;;;;;;;5067981;28;20130;-72
2022/07/28 08:53:05;;;;;;;50.08;4.68;;;;;;;;;;5067466;28;20075;-74
2022/07/28 08:55:34;;;;;;;48.67;4.75;;;;;;;;;;5065891;28;20659;-73
2022/07/28 08:58:01;;;;;;;76.90;6.28;;;;;;;;;;5068963;28;20403;-73
2022/07/28 09:00:28;;;;;;;48.50;4.32;;;;;;;;;;5067139;28;20044;-73
2022/07/28 09:02:55;;;;;;;62.78;5.93;;;;;;;;;;5065448;28;20115;-73
2022/07/28 09:05:22;;;;;;;64.50;6.10;;;;;;;;;;5066121;28;20434;-73
2022/07/28 09:07:50;;;;;;;91.20;7.70;;;;;;;;;;5066427;28;20124;-73
2022/07/28 09:10:20;;;;;;;26.85;3.72;;;;;;;;;;5073742;28;20041;-73
2022/07/28 09:12:47;;;;;;;43.75;4.43;;;;;;;;;;5071428;28;20492;-72
2022/07/28 09:15:13;;;;;;;49.83;5.03;;;;;;;;;;5066958;28;20115;-73
2022/07/28 09:17:41;;;;;;;95.68;8.18;;;;;;;;;;5067105;28;20041;-75
2022/07/28 09:20:08;;;;;;;45.05;4.85;;;;;;;;;;5065518;28;20392;-75
2022/07/28 09:22:52;;;;;;;60.25;5.68;;;;;;;;;;5066098;28;20166;-74
2022/07/28 09:25:19;;;;;;;62.15;5.68;;;;;;;;;;5066125;28;20098;-71
2022/07/28 09:27:46;;;;;;;36.83;4.05;;;;;;;;;;5069982;28;20064;-74
2022/07/28 09:30:12;;;;;;;107.95;9.98;;;;;;;;;;5068729;28;20497;-70
2022/07/28 09:32:39;;;;;;;20.40;3.30;;;;;;;;;;5067688;28;20151;-70
2022/07/28 09:35:26;;;;;;;46.35;5.00;;;;;;;;;;5066434;28;20044;-73
2022/07/28 09:37:58;;;;;;;38.97;4.55;;;;;;;;;;5066500;28;20071;-75
2022/07/28 09:40:25;;;;;;;;;;;;;;;;;;5067561;28;20491;-76
2022/07/28 09:42:55;;;;;;;65.65;5.80;;;;;;;;;;5067110;28;19920;-76
2022/07/28 09:45:25;;;;;;;67.10;6.03;;;;;;;;;;5070091;28;20040;-73
2022/07/28 09:48:11;;;;;;;25.95;3.40;;;;;;;;;;5066895;28;20551;-74
2022/07/28 09:50:42;;;;;;;31.83;3.97;;;;;;;;;;5066729;28;20040;-74
2022/07/28 09:53:24;;;;;;;23.55;3.28;;;;;;;;;;5065988;28;20059;-75
2022/07/28 09:55:57;;;;;;;39.00;4.68;;;;;;;;;;5065211;28;20103;-74
2022/07/28 09:58:24;;;;;;;31.05;3.80;;;;;;;;;;5066815;28;20033;-74
2022/07/28 10:01:11;;;;;;;59.10;6.07;;;;;;;;;;5066704;28;20040;-74
2022/07/28 10:03:39;;;;;;;43.17;4.57;;;;;;;;;;5069898;28;20108;-75
2022/07/28 10:06:10;;;;;;;26.83;3.95;;;;;;;;;;5066372;28;20436;-74
2022/07/28 10:08:42;;;;;;;58.88;5.35;;;;;;;;;;5065504;28;20086;-74
2022/07/28 10:11:10;;;;;;;24.95;3.55;;;;;;;;;;5066427;28;20049;-75
2022/07/28 10:13:52;;;;;;;21.45;3.58;;;;;;;;;;5066381;28;20064;-75
2022/07/28 10:16:20;;;;;;;77.55;6.57;;;;;;;;;;5068660;28;20079;-73
2022/07/28 10:18:47;;;;;;;36.97;4.68;;;;;;;;;;5071617;28;20120;-74
2022/07/28 10:21:15;;;;;;;66.35;5.63;;;;;;;;;;5066059;28;20051;-74
2022/07/28 10:23:49;;;;;;;49.22;4.50;;;;;;;;;;5066128;28;20123;-72
2022/07/28 10:26:16;;;;;;;57.28;4.35;;;;;;;;;;5066211;28;20144;-72
2022/07/28 10:28:45;;;;;;;60.08;4.82;;;;;;;;;;5066343;28;20069;-72
2022/07/28 10:31:13;;;;;;;129.20;8.93;;;;;;;;;;5068183;28;20090;-71
2022/07/28 10:33:45;;;;;;;36.88;3.33;;;;;;;;;;5069649;28;20040;-71
2022/07/28 10:36:13;;;;;;;55.25;4.13;;;;;;;;;;5065957;28;20047;-71
2022/07/28 10:38:39;;;;;;;40.53;3.45;;;;;;;;;;5068468;28;20066;-71
2022/07/28 10:41:07;;;;;;;44.42;3.72;;;;;;;;;;5065897;28;20044;-71
2022/07/28 10:43:34;;;;;;;403.30;29.15;;;;;;;;;;5066178;28;20112;-70
2022/07/28 10:46:08;;;;;;;45.22;3.63;;;;;;;;;;5069185;28;20380;-71
2022/07/28 10:48:41;;;;;;;49.65;4.30;;;;;;;;;;5069315;28;20045;-71
2022/07/28 10:51:09;;;;;;;29.63;2.85;;;;;;;;;;5067984;28;20044;-71
2022/07/28 10:53:35;;;;;;;35.83;3.35;;;;;;;;;;5065821;28;20630;-71
2022/07/28 10:56:10;;;;;;;55.53;4.53;;;;;;;;;;5066064;28;20079;-70
2022/07/28 10:58:42;;;;;;;26.52;2.60;;;;;;;;;;5066164;28;20033;-71
2022/07/28 11:01:31;;;;;;;417.58;29.00;;;;;;;;;;5068141;28;20033;-70
2022/07/28 11:04:33;;;;;;;77.70;5.55;;;;;;;;;;5066375;28;20142;-71
2022/07/28 11:07:13;;;;;;;33.75;3.00;;;;;;;;;;5068971;28;20098;-70
2022/07/28 11:09:40;;;;;;;54.60;4.10;;;;;;;;;;5072302;28;20522;-71
2022/07/28 11:12:06;;;;;;;20.95;2.60;;;;;;;;;;5069643;28;20048;-72
2022/07/28 11:14:36;;;;;;;63.63;4.88;;;;;;;;;;5069835;28;20048;-71
2022/07/28 11:17:05;;;;;;;62.40;4.30;;;;;;;;;;5071013;28;20094;-70
2022/07/28 11:19:42;;;;;;;52.25;4.05;;;;;;;;;;5069162;28;20419;-70
2022/07/28 11:22:29;;;;;;;111.87;8.03;;;;;;;;;;5068943;28;20044;-71
2022/07/28 11:25:01;;;;;;;70.15;4.65;;;;;;;;;;5073852;28;20044;-71
2022/07/28 11:27:48;;;;;;;36.10;3.38;;;;;;;;;;5072930;28;20051;-70
2022/07/28 11:30:15;;;;;;;112.05;10.43;;;;;;;;;;5069150;28;20047;-70
2022/07/28 11:32:51;;;;;;;37.17;3.40;;;;;;;;;;5068375;28;20044;-71
2022/07/28 11:35:18;;;;;;;56.13;4.03;;;;;;;;;;5069058;28;20036;-71
2022/07/28 11:38:00;;;;;;;43.65;3.70;;;;;;;;;;5068515;28;20491;-71
2022/07/28 11:40:28;;;;;;;55.13;4.35;;;;;;;;;;5069086;28;20398;-71
2022/07/28 11:43:14;;;;;;;33.17;2.97;;;;;;;;;;5069769;28;20043;-71
2022/07/28 11:45:48;;;;;;;42.20;3.42;;;;;;;;;;5067053;28;20087;-69
2022/07/28 11:48:21;;;;;;;23.73;2.35;;;;;;;;;;5069317;28;20045;-70
2022/07/28 11:51:11;;;;;;;49.85;4.03;;;;;;;;;;5068424;28;20041;-70
2022/07/28 11:53:51;;;;;;;34.55;3.25;;;;;;;;;;5069163;28;20441;-79
2022/07/28 11:56:21;;;;;;;19.77;2.65;;;;;;;;;;5070334;28;20044;-79
2022/07/28 11:58:54;;;;;;;49.60;3.90;;;;;;;;;;5069860;28;20033;-78
2022/07/28 12:01:21;;;;;;;262.90;16.75;;;;;;;;;;5069833;28;20048;-75
2022/07/28 12:03:49;;;;;;;26.73;2.50;;;;;;;;;;5072929;28;20094;-72
2022/07/28 12:06:34;;;;;;;47.38;3.67;;;;;;;;;;5068302;28;20124;-72
2022/07/28 12:09:02;;;;;;;36.42;3.38;;;;;;;;;;5069219;28;20082;-71
2022/07/28 12:11:33;;;;;;;25.33;2.38;;;;;;;;;;5068098;28;20033;-71
2022/07/28 12:14:01;;;;;;;405.15;31.25;;;;;;;;;;5057014;28;20048;-69
2022/07/28 12:16:28;;;;;;;66.95;4.95;;;;;;;;;;5068530;28;20112;-69
2022/07/28 12:18:55;;;;;;;35.47;2.80;;;;;;;;;;5071822;28;20540;-68
2022/07/28 12:21:38;;;;;;;30.33;3.08;;;;;;;;;;5083864;28;20539;-72
2022/07/28 12:24:14;;;;;;;57.42;4.25;;;;;;;;;;5067417;28;20044;-70
2022/07/28 12:26:41;;;;;;;26.95;2.65;;;;;;;;;;5068332;28;20071;-70
2022/07/28 12:29:12;;;;;;;33.33;2.97;;;;;;;;;;5068037;28;20036;-70
2022/07/28 12:31:40;;;;;;;69.68;5.47;;;;;;;;;;5066856;28;20171;-70
2022/07/28 12:34:10;;;;;;;43.75;3.88;;;;;;;;;;5071431;28;20048;-71
2022/07/28 12:36:38;;;;;;;38.97;3.97;;;;;;;;;;5070192;28;20555;-71
2022/07/28 12:39:05;;;;;;;106.50;7.13;;;;;;;;;;5067306;28;20119;-70
2022/07/28 12:41:38;;;;;;;17.48;2.28;;;;;;;;;;5068086;28;20086;-70
2022/07/28 12:44:04;;;;;;;43.22;3.50;;;;;;;;;;5067900;28;20116;-72
2022/07/28 12:46:31;;;;;;;39.50;3.55;;;;;;;;;;5067503;28;20060;-71
2022/07/28 12:49:00;;;;;;;40.20;3.50;;;;;;;;;;5072791;28;20098;-70
2022/07/28 12:51:36;;;;;;;138.05;8.65;;;;;;;;;;5066906;28;20114;-70
2022/07/28 12:54:07;;;;;;;57.55;4.72;;;;;;;;;;5067610;28;20044;-70
2022/07/28 12:56:43;;;;;;;38.75;3.15;;;;;;;;;;5067310;28;20051;-71
2022/07/28 12:59:12;;;;;;;38.58;3.55;;;;;;;;;;5067633;28;20062;-70
2022/07/28 13:01:49;;;;;;;1062.93;99.35;;;;;;;;;;5067098;28;20037;-70
2022/07/28 13:04:16;;;;;;;99.22;8.20;;;;;;;;;;5069341;28;20048;-70
2022/07/28 13:06:53;;;;;;;15.18;2.08;;;;;;;;;;5070640;28;20101;-70
2022/07/28 13:09:22;;;;;;;64.03;5.28;;;;;;;;;;5066894;28;20041;-70
2022/07/28 13:11:58;;;;;;;58.70;4.28;;;;;;;;;;5066953;28;20453;-71
2022/07/28 13:14:37;;;;;;;54.67;4.47;;;;;;;;;;5067035;28;20406;-70
2022/07/28 13:17:03;;;;;;;34.50;3.00;;;;;;;;;;5066476;28;20506;-70
2022/07/28 13:19:30;;;;;;;30.17;3.28;;;;;;;;;;5066719;28;20044;-71
2022/07/28 13:21:58;;;;;;;120.50;10.00;;;;;;;;;;5067456;28;20127;-71
2022/07/28 13:24:32;;;;;;;132.18;8.27;;;;;;;;;;5069122;28;20067;-70
2022/07/28 13:27:00;;;;;;;47.63;3.92;;;;;;;;;;5067083;28;20064;-70
2022/07/28 13:29:27;;;;;;;62.55;4.65;;;;;;;;;;5066529;28;20075;-70
2022/07/28 13:31:53;;;;;;;63.60;6.32;;;;;;;;;;5069022;28;20605;-70
2022/07/28 13:34:20;;;;;;;38.42;3.40;;;;;;;;;;5068321;28;20052;-71
2022/07/28 13:36:47;;;;;;;85.38;5.85;;;;;;;;;;5069632;28;20079;-70
2022/07/28 13:39:13;;;;;;;52.92;3.90;;;;;;;;;;5066911;28;20109;-70
2022/07/28 13:41:40;;;;;;;26.67;2.50;;;;;;;;;;5066337;28;20056;-71
2022/07/28 13:44:25;;;;;;;48.20;3.97;;;;;;;;;;5066567;28;20147;-71
2022/07/28 13:46:52;;;;;;;19.48;2.50;;;;;;;;;;5066990;28;20060;-71
2022/07/28 13:49:21;;;;;;;57.75;4.28;;;;;;;;;;5068105;28;20044;-71
2022/07/28 13:51:48;;;;;;;38.85;3.30;;;;;;;;;;5070367;28;20142;-66
2022/07/28 13:54:16;;;;;;;29.58;3.40;;;;;;;;;;5066441;28;20120;-76
2022/07/28 13:56:44;;;;;;;19.85;2.22;;;;;;;;;;5066598;28;20044;-65
2022/07/28 13:59:12;;;;;;;37.10;3.17;;;;;;;;;;5066191;28;20040;-65
2022/07/28 14:01:40;;;;;;;52.33;4.18;;;;;;;;;;5066545;28;20037;-65
2022/07/28 14:04:08;;;;;;;53.88;4.20;;;;;;;;;;5069418;28;20124;-65
2022/07/28 14:06:43;;;;;;;16.92;2.40;;;;;;;;;;5069343;28;20051;-65
2022/07/28 14:09:10;;;;;;;32.25;3.60;;;;;;;;;;5065611;28;20051;-65
2022/07/28 14:11:40;;;;;;;57.25;4.30;;;;;;;;;;5066357;28;20410;-65
2022/07/28 14:14:16;;;;;;;26.48;3.00;;;;;;;;;;5066232;28;20090;-65
2022/07/28 14:16:45;;;;;;;59.10;4.80;;;;;;;;;;5066312;28;20116;-65
2022/07/28 14:19:15;;;;;;;63.67;4.93;;;;;;;;;;5069722;28;20052;-65
2022/07/28 14:21:49;;;;;;;54.25;4.10;;;;;;;;;;5069848;28;20048;-65
2022/07/28 14:24:15;;;;;;;49.13;4.50;;;;;;;;;;5065937;28;20564;-65
2022/07/28 14:26:43;;;;;;;48.13;4.18;;;;;;;;;;5065895;28;20037;-66
2022/07/28 14:29:09;;;;;;;29.27;3.03;;;;;;;;;;5066420;28;20032;-66
2022/07/28 14:31:37;;;;;;;70.05;5.28;;;;;;;;;;5065443;28;20045;-66
2022/07/28 14:34:04;;;;;;;62.13;4.30;;;;;;;;;;5069113;28;20383;-66
2022/07/28 14:36:30;;;;;;;57.53;4.43;;;;;;;;;;5065510;28;20049;-66
2022/07/28 14:38:57;;;;;;;32.55;3.10;;;;;;;;;;5064692;28;20119;-66
2022/07/28 14:41:24;;;;;;;76.68;5.82;;;;;;;;;;5067046;28;20118;-66